Time;durP1;ratioP1;P1;durP2;ratioP2;P2;SDS_P1;SDS_P2;PMS_P1;PMS_P2;Temp;Humidity;BMP_temperature;BMP_pressure;BME280_temperature;BME280_humidity;BME280_pressure;Samples;Min_cycle;Max_cycle;Signal;HPM_P1;HPM_P2
2021/05/17 00:01:08;;;;;;;20.60;19.60;;;12.40;82.60;;;;;;5074584;28;20607;-81
2021/05/17 00:03:39;;;;;;;21.00;19.90;;;12.40;82.20;;;;;;5069907;28;20573;-80
2021/05/17 00:06:06;;;;;;;20.50;19.50;;;12.50;81.60;;;;;;5067243;28;20459;-81
2021/05/17 00:08:33;;;;;;;20.70;19.70;;;12.50;81.20;;;;;;5062107;28;20457;-80
2021/05/17 00:11:01;;;;;;;20.60;19.50;;;12.50;81.20;;;;;;5061734;28;20466;-81
2021/05/17 00:13:28;;;;;;;21.40;20.40;;;12.40;81.20;;;;;;5062527;28;20469;-81
2021/05/17 00:15:54;;;;;;;21.40;20.30;;;12.40;81.30;;;;;;5058975;28;20463;-81
2021/05/17 00:18:22;;;;;;;21.07;20.00;;;12.40;81.30;;;;;;5074796;28;20492;-81
2021/05/17 00:20:49;;;;;;;21.00;19.90;;;12.30;81.30;;;;;;5061200;28;20565;-81
2021/05/17 00:23:15;;;;;;;20.73;19.73;;;12.30;81.70;;;;;;5067135;28;20451;-81
2021/05/17 00:25:42;;;;;;;21.60;20.20;;;12.20;81.60;;;;;;5062625;28;20515;-82
2021/05/17 00:28:10;;;;;;;20.37;19.37;;;12.20;81.50;;;;;;5070551;28;20578;-81
2021/05/17 00:30:37;;;;;;;20.63;19.63;;;12.30;81.60;;;;;;5068367;28;20573;-81
2021/05/17 00:33:04;;;;;;;20.90;19.80;;;12.30;81.40;;;;;;5071302;28;20544;-81
2021/05/17 00:35:31;;;;;;;20.17;19.23;;;12.20;81.90;;;;;;5072054;28;20462;-82
2021/05/17 00:37:58;;;;;;;20.90;19.80;;;12.30;82.00;;;;;;5067579;28;20482;-82
2021/05/17 00:40:25;;;;;;;19.93;19.03;;;12.30;81.90;;;;;;5060998;28;20489;-82
2021/05/17 00:42:52;;;;;;;20.10;19.10;;;12.20;82.20;;;;;;5061004;28;20480;-81
2021/05/17 00:45:22;;;;;;;19.80;18.70;;;12.20;82.30;;;;;;5061562;28;20541;-82
2021/05/17 00:47:52;;;;;;;20.70;19.70;;;12.20;82.70;;;;;;5073333;28;20446;-81
2021/05/17 00:50:22;;;;;;;20.23;19.23;;;12.10;83.00;;;;;;5066473;28;20185;-80
2021/05/17 00:52:49;;;;;;;19.80;18.70;;;12.10;82.90;;;;;;5061491;28;20488;-81
2021/05/17 00:55:17;;;;;;;20.27;19.27;;;12.10;82.70;;;;;;5063531;28;20939;-81
2021/05/17 00:57:43;;;;;;;19.90;19.00;;;12.10;82.50;;;;;;5063862;28;20486;-81
2021/05/17 01:00:13;;;;;;;21.23;20.03;;;12.10;82.40;;;;;;5073743;28;21014;-81
2021/05/17 01:02:41;;;;;;;21.00;19.50;;;12.10;82.40;;;;;;5068876;28;21081;-81
2021/05/17 01:05:10;;;;;;;19.70;18.80;;;12.10;82.10;;;;;;5067476;28;20461;-81
2021/05/17 01:07:37;;;;;;;19.90;18.90;;;12.10;82.10;;;;;;5070330;28;20458;-81
2021/05/17 01:10:06;;;;;;;19.67;18.57;;;12.10;82.20;;;;;;5068589;28;20467;-81
2021/05/17 01:12:33;;;;;;;20.20;19.20;;;12.10;82.20;;;;;;5065544;28;20561;-81
2021/05/17 01:15:00;;;;;;;20.80;19.80;;;12.20;81.90;;;;;;5058866;28;20455;-81
2021/05/17 01:17:28;;;;;;;20.40;19.30;;;12.20;81.50;;;;;;5066488;28;20573;-81
2021/05/17 01:20:06;;;;;;;20.30;19.40;;;12.10;81.70;;;;;;5062179;28;20502;-81
2021/05/17 01:22:39;;;;;;;20.80;19.80;;;12.10;81.80;;;;;;5062684;28;20514;-81
2021/05/17 01:25:08;;;;;;;20.73;19.73;;;12.10;82.00;;;;;;5078056;28;21011;-81
2021/05/17 01:27:36;;;;;;;20.40;19.20;;;11.90;82.30;;;;;;5075787;28;20711;-81
2021/05/17 01:30:04;;;;;;;20.27;19.17;;;12.00;82.30;;;;;;5077858;28;20890;-81
2021/05/17 01:32:31;;;;;;;21.65;20.48;;;11.90;82.30;;;;;;5061515;28;20561;-78
2021/05/17 01:35:00;;;;;;;20.30;19.30;;;11.90;82.50;;;;;;5061036;28;20219;-78
2021/05/17 01:37:29;;;;;;;20.77;19.77;;;11.80;82.80;;;;;;5051603;28;20534;-78
2021/05/17 01:39:56;;;;;;;20.30;19.30;;;11.80;83.10;;;;;;5058206;28;20543;-78
2021/05/17 01:42:25;;;;;;;19.80;18.80;;;11.60;83.40;;;;;;5068480;28;20344;-78
2021/05/17 01:44:54;;;;;;;20.30;19.30;;;11.70;83.30;;;;;;5075025;28;20470;-81
2021/05/17 01:47:23;;;;;;;20.25;18.75;;;11.60;83.30;;;;;;5069888;28;20491;-80
2021/05/17 01:49:51;;;;;;;19.70;18.70;;;11.70;82.90;;;;;;5071252;28;20192;-81
2021/05/17 01:52:19;;;;;;;19.88;18.80;;;11.70;82.90;;;;;;5060108;28;20718;-81
2021/05/17 01:54:49;;;;;;;19.83;18.83;;;11.70;83.00;;;;;;5080227;28;20287;-81
2021/05/17 01:57:16;;;;;;;19.90;18.90;;;11.60;83.20;;;;;;5082347;28;20192;-81
2021/05/17 01:59:44;;;;;;;20.50;19.50;;;11.60;83.30;;;;;;5080623;28;20188;-81
2021/05/17 02:02:11;;;;;;;20.00;19.00;;;11.60;83.40;;;;;;5071244;28;20337;-81
2021/05/17 02:04:38;;;;;;;19.92;19.02;;;11.60;83.30;;;;;;5062055;28;20193;-82
2021/05/17 02:07:05;;;;;;;20.80;19.35;;;11.60;83.60;;;;;;5063337;28;20313;-81
2021/05/17 02:09:36;;;;;;;19.90;19.00;;;11.60;83.50;;;;;;5082589;28;20195;-82
2021/05/17 02:12:03;;;;;;;21.40;20.20;;;11.50;83.40;;;;;;5067979;28;20541;-82
2021/05/17 02:14:31;;;;;;;20.33;19.23;;;11.50;83.60;;;;;;5075573;28;20605;-82
2021/05/17 02:16:59;;;;;;;18.93;18.13;;;11.60;83.20;;;;;;5065925;28;20644;-82
2021/05/17 02:19:25;;;;;;;20.83;19.73;;;11.50;83.10;;;;;;5073589;28;20466;-82
2021/05/17 02:21:53;;;;;;;20.80;19.90;;;11.50;83.00;;;;;;5070696;28;20239;-82
2021/05/17 02:24:20;;;;;;;20.10;19.10;;;11.60;82.90;;;;;;5070628;28;20464;-82
2021/05/17 02:26:46;;;;;;;19.95;19.05;;;11.60;82.50;;;;;;5065781;28;20473;-82
2021/05/17 02:29:13;;;;;;;19.70;18.80;;;11.60;82.20;;;;;;5072048;28;20204;-82
2021/05/17 02:31:40;;;;;;;21.80;19.80;;;11.60;82.40;;;;;;5062009;28;20558;-82
2021/05/17 02:34:08;;;;;;;21.27;20.08;;;11.60;82.10;;;;;;5061578;28;20466;-81
2021/05/17 02:36:35;;;;;;;20.40;19.30;;;11.70;82.00;;;;;;5072730;28;20278;-81
2021/05/17 02:39:02;;;;;;;22.83;21.73;;;11.70;81.60;;;;;;5077546;28;20474;-82
2021/05/17 02:41:33;;;;;;;20.33;19.42;;;11.70;81.60;;;;;;5072352;28;20330;-81
2021/05/17 02:44:00;;;;;;;19.45;18.52;;;11.80;81.50;;;;;;5073864;28;20200;-81
2021/05/17 02:46:27;;;;;;;19.90;18.80;;;11.70;81.50;;;;;;5064203;28;20283;-80
2021/05/17 02:48:54;;;;;;;19.70;18.70;;;11.70;81.90;;;;;;5067528;28;20207;-81
2021/05/17 02:51:23;;;;;;;20.23;19.02;;;11.70;81.40;;;;;;5078113;28;20489;-81
2021/05/17 02:54:29;;;;;;;19.85;18.85;;;11.70;81.50;;;;;;5073077;28;20277;-81
2021/05/17 02:57:14;;;;;;;22.50;21.40;;;11.70;81.70;;;;;;5067887;28;20236;-82
2021/05/17 03:00:13;;;;;;;20.63;19.50;;;11.70;81.70;;;;;;5069786;28;20454;-81
2021/05/17 03:03:14;;;;;;;21.70;20.30;;;11.70;81.40;;;;;;5062649;28;20970;-81
2021/05/17 03:05:41;;;;;;;22.10;21.00;;;11.70;81.30;;;;;;5067588;28;20204;-81
2021/05/17 03:08:10;;;;;;;24.70;23.40;;;11.80;80.80;;;;;;5072669;28;20900;-81
2021/05/17 03:10:40;;;;;;;21.97;20.87;;;11.80;80.40;;;;;;5065764;28;20509;-81
2021/05/17 03:13:11;;;;;;;21.30;20.30;;;11.80;80.50;;;;;;5075831;28;20443;-81
2021/05/17 03:15:39;;;;;;;27.20;25.85;;;11.70;80.70;;;;;;5061136;28;20451;-81
2021/05/17 03:18:05;;;;;;;21.50;20.50;;;11.70;80.80;;;;;;5057903;28;20512;-81
2021/05/17 03:20:33;;;;;;;53.22;24.88;;;11.70;80.80;;;;;;5071488;28;20477;-81
2021/05/17 03:23:00;;;;;;;21.67;20.57;;;11.70;80.80;;;;;;5078379;28;20251;-81
2021/05/17 03:25:31;;;;;;;22.70;21.13;;;11.70;81.00;;;;;;5071421;28;20554;-82
2021/05/17 03:27:57;;;;;;;23.30;21.90;;;11.70;81.30;;;;;;5074722;28;20457;-81
2021/05/17 03:30:24;;;;;;;25.50;24.20;;;11.60;81.60;;;;;;5073655;28;20457;-81
2021/05/17 03:32:51;;;;;;;23.43;22.03;;;11.70;81.80;;;;;;5081929;28;20561;-81
2021/05/17 03:35:18;;;;;;;21.20;20.10;;;11.70;81.70;;;;;;5077648;28;20545;-81
2021/05/17 03:37:46;;;;;;;21.63;20.63;;;11.60;81.90;;;;;;5071045;28;20548;-81
2021/05/17 03:40:13;;;;;;;23.00;21.73;;;11.60;81.90;;;;;;5063977;28;20251;-82
2021/05/17 03:42:41;;;;;;;23.10;21.90;;;11.60;82.10;;;;;;5073478;28;20538;-81
2021/05/17 03:45:10;;;;;;;23.23;21.90;;;11.60;82.30;;;;;;5068236;28;20508;-81
2021/05/17 03:47:37;;;;;;;21.67;20.52;;;11.60;82.20;;;;;;5058924;28;20192;-81
2021/05/17 03:50:06;;;;;;;22.07;20.90;;;11.50;82.40;;;;;;5067296;28;20261;-81
2021/05/17 03:52:32;;;;;;;21.40;20.20;;;11.50;82.30;;;;;;5058326;28;21066;-81
2021/05/17 03:54:59;;;;;;;24.77;23.20;;;11.50;82.40;;;;;;5065607;28;20480;-81
2021/05/17 03:57:25;;;;;;;21.97;20.80;;;11.50;82.30;;;;;;5059036;28;20459;-82
2021/05/17 03:59:53;;;;;;;21.30;20.30;;;11.50;82.40;;;;;;5061457;28;20808;-81
2021/05/17 04:02:21;;;;;;;24.40;23.05;;;11.50;82.40;;;;;;5063434;28;21277;-81
2021/05/17 04:04:55;;;;;;;21.43;20.23;;;11.60;82.00;;;;;;5069426;28;20200;-81
2021/05/17 04:07:43;;;;;;;23.17;21.67;;;11.70;81.90;;;;;;5070804;28;20459;-81
2021/05/17 04:15:40;;;;;;;21.58;20.58;;;11.70;81.40;;;;;;5065730;28;20545;-82
2021/05/17 04:18:07;;;;;;;22.20;21.10;;;11.80;81.00;;;;;;5074230;28;20201;-82
2021/05/17 04:20:33;;;;;;;25.13;23.80;;;11.80;81.00;;;;;;5066357;28;20474;-82
2021/05/17 04:22:59;;;;;;;22.57;21.47;;;11.70;81.70;;;;;;5063374;28;20251;-81
2021/05/17 04:25:26;;;;;;;24.30;23.00;;;11.90;81.20;;;;;;5063579;28;20817;-81
2021/05/17 04:27:52;;;;;;;24.20;23.00;;;11.90;80.90;;;;;;5066499;28;21015;-81
2021/05/17 04:30:19;;;;;;;22.00;20.90;;;12.00;80.40;;;;;;5060720;28;20517;-81
2021/05/17 04:32:46;;;;;;;24.47;23.17;;;12.00;80.40;;;;;;5071949;28;20553;-80
2021/05/17 04:35:14;;;;;;;23.90;22.70;;;12.10;80.30;;;;;;5064134;28;20727;-81
2021/05/17 04:37:40;;;;;;;23.50;22.30;;;12.20;79.90;;;;;;5058778;28;20459;-80
2021/05/17 04:40:08;;;;;;;21.60;20.50;;;12.20;79.90;;;;;;5054762;28;20482;-79
2021/05/17 04:42:35;;;;;;;23.67;22.37;;;12.30;79.40;;;;;;5050110;28;20852;-80
2021/05/17 04:45:02;;;;;;;25.17;23.50;;;12.40;78.80;;;;;;5050380;28;20454;-79
2021/05/17 04:47:28;;;;;;;24.17;22.67;;;12.50;78.90;;;;;;5066533;28;20462;-80
2021/05/17 04:49:55;;;;;;;25.30;23.90;;;12.60;78.20;;;;;;5074242;28;20534;-80
2021/05/17 04:52:22;;;;;;;24.50;23.20;;;12.80;77.40;;;;;;5062453;28;20510;-79
2021/05/17 04:54:48;;;;;;;25.03;23.73;;;12.80;77.50;;;;;;5075041;28;20450;-80
2021/05/17 04:57:14;;;;;;;23.17;21.87;;;12.80;77.30;;;;;;5062059;28;20466;-76
2021/05/17 04:59:41;;;;;;;26.53;25.00;;;12.90;76.90;;;;;;5063633;28;20459;-79
2021/05/17 05:02:08;;;;;;;24.50;23.00;;;12.90;76.30;;;;;;5067958;28;20487;-78
2021/05/17 05:04:34;;;;;;;25.57;24.17;;;12.90;76.30;;;;;;5067205;28;20474;-77
2021/05/17 05:07:01;;;;;;;23.43;22.23;;;12.80;76.20;;;;;;5063923;28;20507;-83
2021/05/17 05:09:28;;;;;;;28.00;26.30;;;12.80;75.80;;;;;;5068317;28;20541;-80
2021/05/17 05:11:54;;;;;;;23.80;22.60;;;12.80;76.30;;;;;;5070504;28;20479;-84
2021/05/17 05:14:21;;;;;;;24.20;22.70;;;12.80;75.30;;;;;;5077707;28;20540;-84
2021/05/17 05:16:47;;;;;;;25.23;23.23;;;12.80;75.00;;;;;;5067092;28;20562;-85
2021/05/17 05:19:14;;;;;;;24.20;22.90;;;12.80;74.80;;;;;;5068314;28;20455;-84
2021/05/17 05:21:40;;;;;;;24.00;22.70;;;12.80;75.00;;;;;;5074636;28;20482;-88
2021/05/17 05:24:10;;;;;;;23.73;22.37;;;12.80;74.30;;;;;;5056663;28;20459;-81
2021/05/17 05:26:50;;;;;;;24.50;23.00;;;12.80;74.40;;;;;;5060244;28;20451;-77
2021/05/17 05:29:24;;;;;;;25.33;23.97;;;12.90;73.40;;;;;;5075748;28;20485;-79
2021/05/17 05:31:55;;;;;;;27.83;26.40;;;12.80;73.70;;;;;;5059526;28;20552;-76
2021/05/17 05:34:23;;;;;;;25.43;23.83;;;13.00;72.60;;;;;;5067002;28;20454;-78
2021/05/17 05:36:50;;;;;;;25.07;23.57;;;13.10;72.00;;;;;;5068631;28;20473;-80
2021/05/17 05:39:17;;;;;;;26.93;24.90;;;13.20;71.90;;;;;;5063125;28;20478;-78
2021/05/17 05:41:44;;;;;;;26.27;24.33;;;13.30;71.00;;;;;;5058544;28;20991;-82
2021/05/17 05:44:10;;;;;;;28.73;26.20;;;13.20;71.20;;;;;;5057072;28;20466;-78
2021/05/17 05:46:36;;;;;;;24.80;23.27;;;13.20;71.10;;;;;;5058181;28;20538;-78
2021/05/17 05:49:03;;;;;;;24.40;23.10;;;13.30;70.90;;;;;;5052878;28;20464;-78
2021/05/17 05:51:30;;;;;;;25.43;24.13;;;13.50;70.40;;;;;;5057056;28;20871;-77
2021/05/17 05:53:57;;;;;;;24.27;23.07;;;13.50;70.40;;;;;;5068074;28;20513;-79
2021/05/17 05:56:26;;;;;;;24.80;23.50;;;13.60;70.00;;;;;;5062290;28;21033;-77
2021/05/17 05:58:53;;;;;;;27.47;25.87;;;13.70;69.80;;;;;;5057563;28;20497;-78
2021/05/17 06:01:19;;;;;;;27.20;25.67;;;13.70;69.90;;;;;;5053394;28;20483;-79
2021/05/17 06:03:46;;;;;;;29.87;28.57;;;13.60;69.40;;;;;;5058032;28;20983;-76
2021/05/17 06:06:12;;;;;;;28.07;25.53;;;13.60;70.20;;;;;;5055950;28;20847;-75
2021/05/17 06:08:41;;;;;;;24.90;23.50;;;13.80;70.30;;;;;;5056410;28;20459;-77
2021/05/17 06:11:08;;;;;;;26.30;24.90;;;14.00;69.80;;;;;;5055008;28;20531;-76
2021/05/17 06:13:38;;;;;;;25.00;23.70;;;14.00;69.20;;;;;;5052176;28;20469;-82
2021/05/17 06:16:05;;;;;;;26.00;24.50;;;13.90;69.50;;;;;;5052793;28;20459;-77
2021/05/17 06:18:33;;;;;;;25.57;23.97;;;14.00;69.30;;;;;;5065928;28;20540;-77
2021/05/17 06:21:00;;;;;;;26.70;25.30;;;14.10;69.20;;;;;;5065470;28;20554;-77
2021/05/17 06:23:28;;;;;;;171.03;44.77;;;14.20;68.40;;;;;;5070627;28;20820;-77
2021/05/17 06:25:56;;;;;;;184.60;45.27;;;14.30;68.00;;;;;;5059191;28;20631;-76
2021/05/17 06:28:24;;;;;;;27.00;24.90;;;14.30;68.40;;;;;;5060472;28;21228;-77
2021/05/17 06:30:54;;;;;;;26.30;24.80;;;14.30;69.10;;;;;;5057888;28;21135;-77
2021/05/17 06:33:21;;;;;;;40.13;27.70;;;14.40;68.30;;;;;;5063235;28;20456;-79
2021/05/17 06:35:53;;;;;;;25.40;24.00;;;14.50;67.50;;;;;;5052030;28;20498;-79
2021/05/17 06:38:20;;;;;;;25.67;23.80;;;14.60;66.90;;;;;;5064301;28;20611;-79
2021/05/17 06:40:47;;;;;;;24.73;23.33;;;14.60;66.90;;;;;;5067705;28;20509;-77
2021/05/17 06:43:14;;;;;;;26.30;24.90;;;14.60;66.80;;;;;;5057184;28;20451;-77
2021/05/17 06:45:41;;;;;;;24.20;22.90;;;14.70;66.80;;;;;;5052158;28;20569;-76
2021/05/17 06:48:09;;;;;;;23.97;22.60;;;14.90;66.50;;;;;;5049932;28;20482;-79
2021/05/17 06:50:36;;;;;;;24.90;23.50;;;15.10;66.00;;;;;;5054754;28;20455;-77
2021/05/17 06:53:04;;;;;;;24.53;23.03;;;15.10;66.70;;;;;;5053179;28;20509;-79
2021/05/17 06:55:34;;;;;;;24.83;23.23;;;15.20;66.40;;;;;;5053163;28;20880;-78
2021/05/17 06:58:15;;;;;;;23.90;22.70;;;15.30;66.00;;;;;;5057897;28;21231;-79
2021/05/17 07:00:42;;;;;;;25.23;23.80;;;15.40;65.50;;;;;;5060118;28;20471;-77
2021/05/17 07:03:11;;;;;;;26.93;24.90;;;15.50;64.90;;;;;;5063395;28;20455;-79
2021/05/17 07:05:39;;;;;;;27.10;25.20;;;15.50;65.60;;;;;;5061597;28;20529;-77
2021/05/17 07:13:36;;;;;;;27.37;25.33;;;15.10;67.50;;;;;;5051802;28;20812;-78
2021/05/17 07:16:02;;;;;;;29.00;26.17;;;15.10;67.30;;;;;;5060231;28;20897;-79
2021/05/17 07:18:30;;;;;;;180.23;46.97;;;15.00;67.40;;;;;;5068348;28;20856;-79
2021/05/17 07:23:41;;;;;;;96.10;37.83;;;14.90;68.70;;;;;;5053339;28;20576;-80
2021/05/17 07:26:12;;;;;;;61.07;29.53;;;15.10;68.40;;;;;;5064910;28;20565;-79
2021/05/17 07:28:39;;;;;;;24.60;23.20;;;15.10;67.70;;;;;;5061446;28;20456;-80
2021/05/17 07:31:07;;;;;;;26.00;24.30;;;15.20;67.70;;;;;;5057646;28;20589;-80
2021/05/17 07:33:35;;;;;;;24.50;23.20;;;15.30;66.30;;;;;;5051974;28;20455;-79
2021/05/17 07:36:02;;;;;;;26.73;25.07;;;15.30;65.90;;;;;;5055201;28;20466;-79
2021/05/17 07:38:31;;;;;;;26.20;24.70;;;15.40;66.00;;;;;;5059883;28;20490;-79
2021/05/17 07:41:00;;;;;;;23.90;22.60;;;15.40;65.40;;;;;;5053204;28;20502;-79
2021/05/17 07:43:27;;;;;;;25.70;24.40;;;15.60;64.90;;;;;;5068235;28;20537;-77
2021/05/17 07:45:53;;;;;;;26.57;25.17;;;15.70;64.30;;;;;;5061009;28;20499;-79
2021/05/17 07:48:20;;;;;;;26.00;24.50;;;15.70;64.50;;;;;;5060156;28;20452;-81
2021/05/17 07:50:48;;;;;;;26.70;25.30;;;16.00;63.50;;;;;;5062732;28;20482;-80
2021/05/17 07:53:15;;;;;;;29.73;27.10;;;16.10;61.60;;;;;;5068267;28;20450;-79
2021/05/17 07:55:42;;;;;;;24.40;23.10;;;16.10;61.30;;;;;;5055347;28;20458;-81
2021/05/17 07:58:09;;;;;;;25.50;23.70;;;16.10;60.60;;;;;;5071890;28;20458;-85
2021/05/17 08:00:37;;;;;;;26.47;25.07;;;16.10;60.30;;;;;;5072191;28;20623;-80
2021/05/17 08:03:04;;;;;;;26.53;24.80;;;16.10;60.70;;;;;;5057983;28;20514;-80
2021/05/17 08:05:32;;;;;;;24.40;23.20;;;16.10;60.60;;;;;;5059135;28;20831;-81
2021/05/17 08:08:00;;;;;;;24.23;22.93;;;15.90;60.20;;;;;;5054664;28;20451;-81
2021/05/17 08:10:27;;;;;;;25.50;23.97;;;15.80;60.90;;;;;;5055575;28;21025;-83
2021/05/17 08:12:54;;;;;;;25.87;24.27;;;15.90;61.50;;;;;;5055526;28;20475;-82
2021/05/17 08:15:22;;;;;;;25.57;24.17;;;16.10;61.80;;;;;;5063834;28;20461;-83
2021/05/17 08:17:48;;;;;;;25.77;24.20;;;16.30;60.80;;;;;;5064178;28;20569;-85
2021/05/17 08:20:15;;;;;;;24.83;23.43;;;16.60;60.00;;;;;;5073586;28;20457;-81
2021/05/17 08:22:42;;;;;;;25.30;23.60;;;16.70;60.00;;;;;;5070416;28;20732;-80
2021/05/17 08:25:10;;;;;;;25.47;23.80;;;16.80;60.00;;;;;;5051996;28;20569;-79
2021/05/17 08:27:37;;;;;;;24.20;22.90;;;16.90;58.60;;;;;;5056024;28;20455;-78
2021/05/17 08:30:06;;;;;;;26.03;24.17;;;17.00;58.60;;;;;;5051687;28;20748;-80
2021/05/17 08:32:32;;;;;;;25.13;23.77;;;17.00;58.00;;;;;;5048443;28;20471;-77
2021/05/17 08:34:59;;;;;;;25.37;23.97;;;17.00;57.50;;;;;;5059233;28;20957;-75
2021/05/17 08:37:25;;;;;;;25.60;24.03;;;17.00;58.30;;;;;;5052125;28;20491;-77
2021/05/17 08:39:52;;;;;;;27.47;25.37;;;17.00;58.20;;;;;;5058564;28;20523;-76
2021/05/17 08:42:19;;;;;;;24.60;23.20;;;17.10;58.50;;;;;;5063683;28;20490;-77
2021/05/17 08:44:45;;;;;;;23.97;22.77;;;17.20;57.80;;;;;;5049915;28;20548;-76
2021/05/17 08:47:12;;;;;;;25.23;23.63;;;17.30;57.40;;;;;;5063884;28;20520;-76
2021/05/17 08:49:39;;;;;;;25.17;23.87;;;17.40;57.70;;;;;;5056506;28;20470;-76
2021/05/17 08:52:06;;;;;;;24.50;23.00;;;17.50;56.10;;;;;;5060847;28;20484;-75
2021/05/17 08:54:34;;;;;;;24.57;23.27;;;17.40;56.50;;;;;;5064373;28;20973;-76
2021/05/17 08:57:01;;;;;;;23.93;22.70;;;17.60;56.60;;;;;;5056936;28;20485;-76
2021/05/17 08:59:28;;;;;;;26.17;24.77;;;17.50;56.30;;;;;;5066151;28;20529;-76
2021/05/17 09:01:54;;;;;;;25.73;23.93;;;17.30;57.00;;;;;;5064356;28;20987;-77
2021/05/17 09:04:21;;;;;;;23.60;22.40;;;17.30;57.40;;;;;;5058985;28;20887;-76
2021/05/17 09:06:52;;;;;;;26.37;24.57;;;17.30;58.30;;;;;;5046677;28;20455;-77
2021/05/17 09:09:29;;;;;;;23.70;22.30;;;17.40;58.30;;;;;;5064509;28;20454;-76
2021/05/17 09:11:57;;;;;;;25.23;23.37;;;17.80;57.80;;;;;;5048856;28;20481;-77
2021/05/17 09:14:25;;;;;;;25.00;23.70;;;18.10;57.50;;;;;;5061056;28;21071;-77
2021/05/17 09:16:58;;;;;;;31.13;24.37;;;18.30;55.70;;;;;;5058805;28;21247;-76
2021/05/17 09:19:27;;;;;;;25.87;24.47;;;18.20;56.70;;;;;;5052982;28;20458;-76
2021/05/17 09:22:15;;;;;;;24.53;23.13;;;18.20;56.20;;;;;;5047676;28;20984;-77
2021/05/17 09:24:48;;;;;;;24.30;22.80;;;17.90;56.90;;;;;;5061984;28;21111;-76
2021/05/17 09:27:17;;;;;;;24.50;23.20;;;17.90;58.30;;;;;;5053807;28;20464;-77
2021/05/17 09:29:47;;;;;;;26.87;25.30;;;18.00;57.70;;;;;;5061088;28;20547;-76
2021/05/17 09:32:24;;;;;;;24.00;22.60;;;17.70;57.90;;;;;;5059428;28;20564;-77
2021/05/17 09:34:59;;;;;;;26.37;24.07;;;17.80;57.90;;;;;;5054468;28;20919;-76
2021/05/17 09:37:27;;;;;;;28.17;24.70;;;17.80;57.90;;;;;;5053205;28;20527;-76
2021/05/17 09:39:54;;;;;;;27.73;26.10;;;18.10;57.20;;;;;;5067677;28;20516;-76
2021/05/17 09:42:23;;;;;;;25.37;23.97;;;18.30;55.80;;;;;;5062545;28;20481;-76
2021/05/17 09:44:52;;;;;;;25.27;23.13;;;18.20;55.40;;;;;;5065059;28;20462;-76
2021/05/17 09:47:20;;;;;;;25.47;24.07;;;18.20;56.00;;;;;;5061810;28;20454;-76
2021/05/17 09:49:50;;;;;;;27.50;24.23;;;18.20;55.20;;;;;;5055445;28;20516;-76
2021/05/17 09:52:21;;;;;;;24.80;22.90;;;18.10;56.80;;;;;;5059703;28;20477;-77
2021/05/17 09:54:59;;;;;;;25.07;23.57;;;18.10;57.40;;;;;;5057953;28;20513;-76
2021/05/17 09:57:29;;;;;;;25.77;23.90;;;18.20;57.90;;;;;;5056517;28;20508;-77
2021/05/17 09:59:56;;;;;;;25.87;24.20;;;18.30;56.90;;;;;;5066036;28;20851;-76
2021/05/17 10:02:32;;;;;;;26.47;24.13;;;18.20;56.70;;;;;;5067848;28;20481;-76
2021/05/17 10:05:10;;;;;;;26.40;24.70;;;17.80;57.00;;;;;;5068957;28;20511;-76
2021/05/17 10:07:37;;;;;;;24.83;23.43;;;17.50;57.90;;;;;;5052938;28;20550;-76
2021/05/17 10:10:05;;;;;;;24.80;23.50;;;17.50;58.20;;;;;;5049811;28;20994;-76
2021/05/17 10:12:34;;;;;;;24.20;22.53;;;17.50;58.20;;;;;;5050934;28;20497;-76
2021/05/17 10:15:11;;;;;;;25.67;23.57;;;17.50;58.20;;;;;;5052452;28;20458;-79
2021/05/17 10:17:39;;;;;;;25.13;23.73;;;17.70;58.10;;;;;;5064717;28;20462;-78
2021/05/17 10:20:08;;;;;;;26.03;24.50;;;17.80;57.70;;;;;;5068615;28;20542;-77
2021/05/17 10:22:36;;;;;;;25.20;23.90;;;17.80;57.40;;;;;;5061509;28;20482;-77
2021/05/17 10:25:06;;;;;;;24.37;23.10;;;17.80;57.40;;;;;;5061916;28;21121;-79
2021/05/17 10:27:38;;;;;;;24.73;23.33;;;17.80;57.70;;;;;;5050487;28;20451;-77
2021/05/17 10:30:09;;;;;;;24.10;22.90;;;18.10;57.40;;;;;;5053397;28;20546;-76
2021/05/17 10:32:53;;;;;;;25.20;23.90;;;18.10;56.80;;;;;;5068014;28;20487;-78
2021/05/17 10:35:23;;;;;;;25.53;24.23;;;18.30;57.40;;;;;;5058284;28;20619;-77
2021/05/17 10:37:49;;;;;;;25.63;24.23;;;18.40;57.20;;;;;;5051568;28;20534;-77
2021/05/17 10:40:32;;;;;;;26.07;24.60;;;18.20;59.00;;;;;;5060659;28;20562;-79
2021/05/17 10:43:08;;;;;;;25.20;23.80;;;17.60;63.30;;;;;;5058334;28;20563;-77
2021/05/17 10:48:24;;;;;;;25.50;24.10;;;16.80;66.40;;;;;;5069915;28;20446;-76
2021/05/17 10:51:08;;;;;;;26.97;25.43;;;16.50;67.40;;;;;;5056631;28;20459;-76
2021/05/17 10:53:45;;;;;;;26.60;25.20;;;16.30;68.30;;;;;;5056567;28;20542;-76
2021/05/17 10:56:13;;;;;;;24.67;23.37;;;16.40;70.50;;;;;;5052559;28;20542;-76
2021/05/17 11:01:54;;;;;;;25.60;24.10;;;16.80;69.10;;;;;;5057721;28;20477;-75
2021/05/17 11:04:29;;;;;;;26.90;24.80;;;16.90;69.60;;;;;;5062271;28;20458;-75
2021/05/17 11:07:20;;;;;;;26.13;24.73;;;17.20;66.50;;;;;;5050802;28;20514;-76
2021/05/17 11:10:09;;;;;;;25.13;23.63;;;17.40;66.20;;;;;;5057659;28;20459;-78
2021/05/17 11:13:00;;;;;;;23.70;22.40;;;17.50;65.70;;;;;;5048510;28;20560;-76
2021/05/17 11:15:38;;;;;;;25.03;23.70;;;17.70;64.50;;;;;;5051848;28;20889;-79
2021/05/17 11:18:23;;;;;;;24.67;23.10;;;17.80;64.30;;;;;;5050919;28;20833;-75
2021/05/17 11:20:53;;;;;;;25.93;24.33;;;17.90;64.10;;;;;;5059649;28;20565;-81
2021/05/17 11:24:00;;;;;;;26.47;24.97;;;17.70;63.90;;;;;;5063263;28;20495;-79
2021/05/17 11:26:30;;;;;;;25.63;24.27;;;17.80;63.20;;;;;;5053488;28;20459;-79
2021/05/17 11:29:08;;;;;;;25.80;24.20;;;17.80;63.10;;;;;;5069655;28;20458;-77
2021/05/17 11:31:39;;;;;;;25.17;23.87;;;17.70;64.30;;;;;;5065697;28;20473;-78
2021/05/17 11:34:14;;;;;;;24.40;23.10;;;17.60;63.70;;;;;;5048945;28;20484;-76
2021/05/17 11:36:43;;;;;;;26.20;24.80;;;17.30;64.50;;;;;;5066588;28;20519;-79
2021/05/17 11:39:16;;;;;;;24.73;23.53;;;17.20;64.20;;;;;;5062128;28;20467;-79
2021/05/17 11:41:47;;;;;;;32.40;31.03;;;17.10;63.00;;;;;;5063332;28;20485;-77
2021/05/17 11:44:16;;;;;;;25.70;24.30;;;16.90;63.80;;;;;;5055989;28;20459;-76
2021/05/17 11:46:46;;;;;;;25.70;24.30;;;16.90;65.00;;;;;;5054484;28;20816;-77
2021/05/17 11:49:15;;;;;;;26.33;24.90;;;16.80;66.20;;;;;;5068336;28;20865;-76
2021/05/17 11:51:42;;;;;;;26.00;24.40;;;16.60;67.00;;;;;;5055629;28;20478;-78
2021/05/17 11:54:09;;;;;;;25.33;24.00;;;16.50;69.60;;;;;;5065422;28;20466;-77
2021/05/17 11:56:41;;;;;;;27.10;25.53;;;16.70;68.50;;;;;;5053430;28;20534;-78
2021/05/17 11:59:16;;;;;;;25.60;24.20;;;16.80;68.00;;;;;;5063828;28;20930;-76
2021/05/17 12:01:44;;;;;;;25.37;23.77;;;16.70;68.30;;;;;;5060214;28;20485;-76
2021/05/17 12:04:22;;;;;;;24.53;23.03;;;16.90;69.50;;;;;;5067678;28;20950;-78
2021/05/17 12:06:52;;;;;;;25.13;23.83;;;17.00;65.80;;;;;;5062708;28;20526;-77
2021/05/17 12:09:40;;;;;;;25.90;24.40;;;17.20;64.20;;;;;;5058190;28;20557;-77
2021/05/17 12:12:10;;;;;;;24.10;22.80;;;17.30;61.20;;;;;;5049038;28;20563;-78
2021/05/17 12:14:38;;;;;;;25.80;24.40;;;17.30;59.30;;;;;;5062594;28;21085;-79
2021/05/17 12:17:11;;;;;;;26.60;25.00;;;17.30;61.20;;;;;;5049384;28;20470;-78
2021/05/17 12:19:39;;;;;;;25.37;24.07;;;17.40;61.00;;;;;;5066551;28;20454;-76
2021/05/17 12:22:10;;;;;;;24.47;23.07;;;17.40;59.80;;;;;;5063744;28;20505;-76
2021/05/17 12:24:36;;;;;;;25.37;23.83;;;17.40;59.70;;;;;;5067008;28;20458;-76
2021/05/17 12:27:05;;;;;;;24.50;23.30;;;17.30;59.70;;;;;;5056896;28;20900;-77
2021/05/17 12:29:51;;;;;;;27.17;25.67;;;17.40;58.50;;;;;;5068033;28;20458;-77
2021/05/17 12:32:20;;;;;;;26.30;24.70;;;17.50;58.70;;;;;;5051832;28;20531;-80
2021/05/17 12:34:55;;;;;;;24.80;23.60;;;17.60;58.70;;;;;;5051537;28;20455;-78
2021/05/17 12:37:23;;;;;;;24.60;23.10;;;17.70;57.00;;;;;;5066008;28;20457;-80
2021/05/17 12:40:28;;;;;;;24.90;23.50;;;17.90;57.20;;;;;;5068564;28;20536;-82
2021/05/17 12:43:01;;;;;;;25.67;24.27;;;18.20;55.80;;;;;;5047025;28;20492;-78
2021/05/17 12:45:28;;;;;;;25.67;24.37;;;18.30;55.60;;;;;;5056431;28;20457;-81
2021/05/17 12:47:55;;;;;;;25.63;24.33;;;18.30;55.20;;;;;;5056551;28;20443;-80
2021/05/17 12:50:23;;;;;;;25.50;24.10;;;18.40;54.60;;;;;;5060846;28;20469;-80
2021/05/17 12:53:03;;;;;;;27.17;25.20;;;18.60;53.60;;;;;;5071423;28;20495;-80
2021/05/17 12:55:29;;;;;;;28.03;25.67;;;18.80;54.00;;;;;;5061281;28;20549;-77
2021/05/17 12:58:00;;;;;;;25.40;24.10;;;19.10;53.40;;;;;;5048307;28;20477;-76